Time;durP1;ratioP1;P1;durP2;ratioP2;P2;SDS_P1;SDS_P2;PMS_P1;PMS_P2;Temp;Humidity;BMP_temperature;BMP_pressure;BME280_temperature;BME280_humidity;BME280_pressure;Samples;Min_cycle;Max_cycle;Signal;HPM_P1;HPM_P2
2022/01/20 00:02:05;;;;;;;13.33;5.47;;;;;;;4.87;65.08;101084.97;5098263;28;20436;-67
2022/01/20 00:04:50;;;;;;;16.30;5.80;;;;;;;4.86;65.85;101088.41;5098122;28;20417;-69
2022/01/20 00:08:05;;;;;;;16.60;4.90;;;;;;;5.20;65.20;101087.97;5098186;28;20440;-67
2022/01/20 00:25:49;;;;;;;17.20;5.27;;;;;;;4.87;67.67;101087.56;5105067;28;20724;-68
2022/01/20 00:26:21;;;;;;;15.23;5.40;;;;;;;5.18;66.91;101081.88;5103838;28;20440;-68
2022/01/20 00:28:50;;;;;;;18.97;4.60;;;;;;;4.99;67.83;101069.97;5103442;28;20651;-67
2022/01/20 00:33:50;;;;;;;14.20;4.93;;;;;;;5.00;67.82;101069.13;5101777;28;20414;-68
2022/01/20 00:38:40;;;;;;;12.97;5.10;;;;;;;4.75;69.28;101069.00;5102049;28;20442;-68
2022/01/20 00:41:09;;;;;;;11.03;4.60;;;;;;;4.77;69.90;101057.91;5101646;28;20196;-68
2022/01/20 00:43:34;;;;;;;11.33;4.13;;;;;;;4.91;69.82;101062.75;5101583;28;20193;-68
2022/01/20 00:46:00;;;;;;;16.27;5.70;;;;;;;5.09;67.98;101055.69;5102219;28;20402;-68
2022/01/20 00:48:25;;;;;;;17.30;5.10;;;;;;;5.21;67.54;101057.84;5101426;28;20187;-67
2022/01/20 00:50:50;;;;;;;16.13;5.70;;;;;;;5.14;67.80;101048.97;5101434;28;20220;-67
2022/01/20 00:53:16;;;;;;;16.50;5.20;;;;;;;4.84;68.49;101057.34;5101341;28;20288;-68
2022/01/20 00:55:41;;;;;;;15.33;5.10;;;;;;;4.83;68.39;101049.53;5101570;28;20538;-67
2022/01/20 00:58:07;;;;;;;18.50;5.27;;;;;;;4.99;66.56;101051.88;5101640;28;20581;-67
2022/01/20 01:00:33;;;;;;;12.50;4.73;;;;;;;4.98;66.59;101051.81;5101437;28;20223;-67
2022/01/20 01:02:59;;;;;;;10.00;5.03;;;;;;;5.00;67.08;101060.50;5101189;28;20272;-67
2022/01/20 01:05:26;;;;;;;11.03;5.17;;;;;;;5.35;65.06;101054.03;5101823;28;20410;-67
2022/01/20 01:07:54;;;;;;;17.83;5.00;;;;;;;5.11;65.79;101068.66;5101016;28;20172;-67
2022/01/20 01:10:28;;;;;;;12.77;4.30;;;;;;;4.96;65.63;101063.78;5101261;28;20410;-68
2022/01/20 01:13:00;;;;;;;16.90;4.60;;;;;;;5.19;65.56;101062.06;5083481;28;20413;-68
2022/01/20 01:15:31;;;;;;;23.17;5.50;;;;;;;5.51;65.72;101054.59;5083366;28;20472;-67
2022/01/20 01:23:28;;;;;;;8.80;4.50;;;;;;;4.96;71.96;101062.06;5100813;28;20410;-67
2022/01/20 01:25:56;;;;;;;13.93;4.53;;;;;;;4.79;72.02;101070.88;5083541;28;20414;-67
2022/01/20 01:28:24;;;;;;;13.27;3.73;;;;;;;4.42;74.09;101103.88;5100904;28;20452;-67
2022/01/20 01:33:36;;;;;;;12.07;4.07;;;;;;;3.94;77.79;101083.88;5100181;28;20464;-67
2022/01/20 01:36:04;;;;;;;7.07;3.20;;;;;;;4.47;76.55;101099.78;5100709;28;20406;-67
2022/01/20 01:38:36;;;;;;;9.67;3.73;;;;;;;4.23;77.87;101094.50;5100602;28;20901;-68
2022/01/20 01:41:10;;;;;;;8.57;4.40;;;;;;;4.14;77.26;101104.44;5100551;28;20463;-68
2022/01/20 01:43:39;;;;;;;15.43;3.90;;;;;;;4.45;76.75;101095.38;5100423;28;20421;-67
2022/01/20 01:46:05;;;;;;;9.97;3.30;;;;;;;4.17;76.95;101087.41;5100509;28;20396;-67
2022/01/20 01:48:31;;;;;;;11.30;3.70;;;;;;;4.22;76.81;101085.00;5100477;28;20730;-67
2022/01/20 01:50:59;;;;;;;12.17;4.00;;;;;;;4.01;77.41;101090.19;5100546;28;20215;-68
2022/01/20 01:53:24;;;;;;;12.10;3.80;;;;;;;4.68;76.01;101089.44;5100008;28;20466;-67
2022/01/20 01:55:49;;;;;;;14.77;3.93;;;;;;;4.72;76.82;101091.34;5100192;28;20414;-67
2022/01/20 01:58:15;;;;;;;7.70;3.50;;;;;;;4.47;76.42;101089.47;5100453;28;20225;-68
2022/01/20 02:00:41;;;;;;;7.20;4.23;;;;;;;4.39;75.82;101088.28;5100127;28;20183;-67
2022/01/20 02:03:07;;;;;;;9.20;3.20;;;;;;;4.69;74.99;101095.50;5100016;28;20172;-67
2022/01/20 02:05:34;;;;;;;8.13;3.47;;;;;;;4.80;74.45;101093.31;5100608;28;20501;-68
2022/01/20 02:18:51;;;;;;;10.40;3.23;;;;;;;4.77;72.26;101093.22;5099676;28;20443;-68
2022/01/20 02:21:17;;;;;;;4.43;3.03;;;;;;;4.49;73.31;101105.03;5082957;28;20426;-67
2022/01/20 02:23:43;;;;;;;12.80;3.63;;;;;;;4.28;72.97;101105.91;5099621;28;20425;-67
2022/01/20 02:26:08;;;;;;;10.20;3.77;;;;;;;4.57;71.98;101095.88;5099789;28;20172;-67
2022/01/20 02:28:34;;;;;;;7.33;3.33;;;;;;;4.00;73.28;101097.00;5082724;28;20378;-67
2022/01/20 02:30:59;;;;;;;9.20;3.50;;;;;;;4.19;73.38;101102.94;5099604;28;20259;-68
2022/01/20 02:33:27;;;;;;;11.23;4.00;;;;;;;4.18;73.74;101096.91;5099480;28;20172;-68
2022/01/20 02:35:55;;;;;;;8.13;3.77;;;;;;;3.98;73.69;101085.75;5066118;28;20226;-67
2022/01/20 02:46:03;;;;;;;12.50;4.07;;;;;;;4.14;74.95;101073.50;5099791;28;20179;-67
2022/01/20 02:48:29;;;;;;;15.90;5.23;;;;;;;4.01;75.26;101078.16;5081737;28;20422;-67
2022/01/20 02:50:54;;;;;;;17.03;4.90;;;;;;;4.01;74.92;101075.56;5099524;28;20484;-67
2022/01/20 02:53:19;;;;;;;16.03;5.00;;;;;;;3.48;74.83;101072.47;5099242;28;20219;-67
2022/01/20 02:55:45;;;;;;;14.23;4.20;;;;;;;3.68;74.72;101078.50;5099813;28;20588;-67
2022/01/20 02:58:10;;;;;;;14.60;4.80;;;;;;;4.17;72.53;101071.06;5099132;28;20199;-68
2022/01/20 03:00:36;;;;;;;13.30;4.77;;;;;;;3.79;73.57;101073.78;5101180;28;20267;-68
2022/01/20 03:03:02;;;;;;;17.50;4.50;;;;;;;3.84;72.54;101081.72;5100082;28;20251;-68
2022/01/20 03:05:31;;;;;;;19.60;4.90;;;;;;;3.86;72.15;101093.84;5099163;28;20180;-68
2022/01/20 03:07:56;;;;;;;11.37;4.60;;;;;;;3.99;72.00;101087.53;5099023;28;20454;-68
2022/01/20 03:10:21;;;;;;;16.87;5.50;;;;;;;3.67;71.23;101086.16;5099361;28;20505;-68
2022/01/20 03:12:47;;;;;;;14.40;4.60;;;;;;;4.10;70.42;101084.50;5098748;28;20187;-68
2022/01/20 03:15:12;;;;;;;14.23;4.27;;;;;;;4.09;69.68;101085.34;5098947;28;20209;-69
2022/01/20 03:17:37;;;;;;;13.57;4.10;;;;;;;4.08;71.33;101088.72;5099237;28;20188;-69
2022/01/20 03:20:03;;;;;;;11.50;4.70;;;;;;;3.84;69.50;101094.59;5098938;28;20180;-68
2022/01/20 03:22:28;;;;;;;13.03;4.50;;;;;;;4.11;68.21;101099.16;5098532;28;20176;-68
2022/01/20 03:24:55;;;;;;;14.37;4.50;;;;;;;3.90;67.22;101110.34;5099028;28;20417;-68
2022/01/20 03:27:20;;;;;;;11.00;4.60;;;;;;;3.70;66.86;101102.63;5098703;28;20206;-68
2022/01/20 03:29:46;;;;;;;15.80;4.07;;;;;;;3.87;65.55;101115.41;5100770;28;20411;-69
2022/01/20 03:32:11;;;;;;;10.97;3.80;;;;;;;3.65;65.80;101119.63;5100956;28;20173;-68
2022/01/20 03:34:36;;;;;;;9.70;3.73;;;;;;;3.61;65.33;101121.97;5099706;28;20251;-68
2022/01/20 03:37:03;;;;;;;10.10;3.80;;;;;;;3.40;66.20;101125.38;5098765;28;20399;-67
2022/01/20 03:39:30;;;;;;;9.00;4.13;;;;;;;3.85;67.21;101117.88;5099135;28;20257;-67
2022/01/20 03:41:55;;;;;;;9.10;3.97;;;;;;;3.72;64.86;101125.91;5098472;28;20662;-67
2022/01/20 03:44:20;;;;;;;12.93;4.37;;;;;;;3.35;65.55;101138.03;5100449;28;20396;-67
2022/01/20 03:46:46;;;;;;;17.70;4.20;;;;;;;3.77;63.54;101139.00;5099760;28;20264;-68
2022/01/20 03:49:26;;;;;;;7.63;3.80;;;;;;;4.00;64.54;101138.28;5098615;28;20169;-68
2022/01/20 03:51:51;;;;;;;8.70;3.83;;;;;;;3.53;64.08;101147.41;5098287;28;20220;-67
2022/01/20 03:54:16;;;;;;;15.93;4.80;;;;;;;3.63;63.38;101159.03;5098055;28;20443;-67
2022/01/20 03:56:42;;;;;;;11.27;4.63;;;;;;;3.85;65.11;101166.88;5098202;28;20526;-68
2022/01/20 03:59:07;;;;;;;10.37;4.67;;;;;;;3.52;64.65;101164.59;5098804;28;20192;-67
2022/01/20 04:01:32;;;;;;;8.30;3.70;;;;;;;3.28;65.76;101168.63;5098267;28;20529;-68
2022/01/20 04:03:57;;;;;;;9.83;3.60;;;;;;;3.44;65.78;101168.50;5098158;28;20187;-68
2022/01/20 04:06:24;;;;;;;9.53;3.87;;;;;;;3.56;64.77;101165.63;5098812;28;20187;-68
2022/01/20 04:08:50;;;;;;;6.77;4.00;;;;;;;3.26;64.25;101177.97;5098251;28;20171;-68
2022/01/20 04:11:18;;;;;;;7.10;3.17;;;;;;;3.62;64.61;101165.00;5098120;28;20663;-68
2022/01/20 04:13:44;;;;;;;9.17;3.40;;;;;;;3.73;64.72;101174.09;5098425;28;20179;-67
2022/01/20 04:16:17;;;;;;;9.37;4.23;;;;;;;3.69;64.60;101173.09;5098027;28;20414;-67
2022/01/20 04:18:52;;;;;;;9.90;3.53;;;;;;;3.50;62.59;101184.25;5080784;28;20214;-68
2022/01/20 04:21:22;;;;;;;6.73;3.53;;;;;;;3.55;64.05;101205.09;5098009;28;20501;-67
2022/01/20 04:23:48;;;;;;;6.60;3.60;;;;;;;3.49;62.59;101194.47;5097898;28;20414;-67
2022/01/20 04:26:13;;;;;;;9.17;3.97;;;;;;;3.28;63.64;101187.53;5098034;28;20401;-68
2022/01/20 04:28:38;;;;;;;11.63;4.57;;;;;;;3.10;62.97;101199.53;5080553;28;20176;-68
2022/01/20 04:31:04;;;;;;;5.53;3.37;;;;;;;3.42;63.76;101195.03;5098348;28;20256;-68
2022/01/20 04:33:29;;;;;;;8.77;3.63;;;;;;;3.48;63.28;101196.19;5097741;28;20305;-68
2022/01/20 04:35:54;;;;;;;6.50;2.93;;;;;;;3.55;64.34;101197.34;5097867;28;20215;-67
2022/01/20 04:38:20;;;;;;;9.00;3.47;;;;;;;3.04;63.46;101200.16;5098229;28;20220;-67
2022/01/20 04:40:45;;;;;;;11.53;3.50;;;;;;;3.57;62.14;101208.59;5097764;28;20548;-67
2022/01/20 04:43:10;;;;;;;12.57;4.00;;;;;;;3.28;63.84;101200.41;5097587;28;20183;-67
2022/01/20 04:45:46;;;;;;;10.43;3.57;;;;;;;3.16;62.80;101207.56;5098188;28;20172;-67
2022/01/20 04:48:21;;;;;;;7.97;4.17;;;;;;;2.94;64.24;101203.97;5097954;28;20545;-67
2022/01/20 04:59:00;;;;;;;6.43;3.77;;;;;;;3.38;63.73;101227.50;5097637;28;20472;-68
2022/01/20 05:01:25;;;;;;;11.40;3.70;;;;;;;3.74;64.71;101236.88;5097705;28;20684;-68
2022/01/20 05:03:50;;;;;;;13.00;4.30;;;;;;;3.49;65.00;101228.00;5097507;28;20447;-67
2022/01/20 05:06:16;;;;;;;12.07;4.10;;;;;;;3.64;62.30;101238.13;5097718;28;20180;-68
2022/01/20 05:08:41;;;;;;;7.80;4.00;;;;;;;3.44;60.84;101243.25;5101300;28;20175;-68
2022/01/20 05:11:06;;;;;;;5.70;3.43;;;;;;;3.56;61.71;101242.94;5101165;28;20183;-67
2022/01/20 05:13:34;;;;;;;14.83;4.37;;;;;;;3.52;60.98;101244.50;5101024;28;20172;-68
2022/01/20 05:16:00;;;;;;;7.87;3.57;;;;;;;3.22;61.52;101259.41;5101785;28;20255;-68
2022/01/20 05:18:26;;;;;;;12.20;4.43;;;;;;;3.62;60.45;101260.41;5083158;28;20466;-68
2022/01/20 05:20:51;;;;;;;16.73;4.60;;;;;;;3.50;61.12;101247.81;5100837;28;20418;-68
2022/01/20 05:23:17;;;;;;;20.70;5.07;;;;;;;3.40;59.93;101261.06;5101127;28;20172;-67
2022/01/20 05:25:42;;;;;;;11.87;4.20;;;;;;;3.57;60.83;101259.28;5101013;28;20165;-68
2022/01/20 05:28:08;;;;;;;14.33;4.20;;;;;;;3.34;60.74;101262.56;5100643;28;20168;-67
2022/01/20 05:30:33;;;;;;;17.87;4.50;;;;;;;3.18;59.88;101267.78;5101171;28;20175;-67
2022/01/20 05:33:00;;;;;;;13.97;4.57;;;;;;;3.12;60.08;101277.81;5100617;28;20297;-67
2022/01/20 05:35:25;;;;;;;10.73;4.00;;;;;;;2.99;59.61;101290.09;5100798;28;20576;-68
2022/01/20 05:37:51;;;;;;;17.70;4.60;;;;;;;3.37;59.29;101285.91;5100955;28;20445;-69
2022/01/20 05:40:16;;;;;;;10.27;3.90;;;;;;;3.59;59.86;101281.75;5100694;28;20410;-67
2022/01/20 05:42:41;;;;;;;10.83;3.83;;;;;;;3.62;60.38;101294.78;5100529;28;20272;-68
2022/01/20 05:45:07;;;;;;;11.03;4.40;;;;;;;3.32;59.45;101301.97;5101284;28;20206;-68
2022/01/20 05:47:35;;;;;;;12.00;6.57;;;;;;;3.42;57.46;101306.72;5100490;28;20474;-68
2022/01/20 05:50:00;;;;;;;15.53;4.80;;;;;;;3.58;57.41;101325.53;5083210;28;20414;-68
2022/01/20 05:52:26;;;;;;;10.20;4.10;;;;;;;3.33;57.45;101322.66;5100541;28;20477;-67
2022/01/20 05:54:51;;;;;;;13.50;4.80;;;;;;;3.40;57.90;101328.97;5100254;28;20172;-67
2022/01/20 05:57:16;;;;;;;12.83;4.30;;;;;;;3.18;58.86;101322.78;5100434;28;20434;-67
2022/01/20 05:59:42;;;;;;;13.83;5.43;;;;;;;3.33;58.02;101320.06;5100293;28;20204;-67
2022/01/20 06:02:27;;;;;;;12.33;4.83;;;;;;;3.43;58.11;101320.50;5100249;28;20168;-67
2022/01/20 06:04:53;;;;;;;16.33;6.10;;;;;;;3.43;59.34;101317.94;5100099;28;20182;-67
2022/01/20 06:07:20;;;;;;;14.23;4.37;;;;;;;3.41;58.78;101304.97;5100043;28;20496;-67
2022/01/20 06:09:45;;;;;;;14.80;4.50;;;;;;;3.38;58.22;101307.38;5083358;28;20164;-68
2022/01/20 06:12:10;;;;;;;20.83;5.20;;;;;;;3.25;58.60;101305.94;5100211;28;20857;-68
2022/01/20 06:14:36;;;;;;;12.73;4.30;;;;;;;3.61;58.24;101308.47;5082560;28;20174;-69
2022/01/20 06:17:01;;;;;;;17.50;6.33;;;;;;;3.68;59.61;101309.66;5100468;28;20176;-68
2022/01/20 06:19:27;;;;;;;18.10;4.43;;;;;;;3.72;56.84;101301.25;5099635;28;20287;-68
2022/01/20 06:21:52;;;;;;;11.37;4.57;;;;;;;3.55;58.24;101308.22;5099805;28;20178;-68
2022/01/20 06:24:17;;;;;;;17.67;5.87;;;;;;;3.93;56.37;101310.81;5100074;28;20465;-68
2022/01/20 06:26:43;;;;;;;12.43;4.17;;;;;;;3.88;56.09;101318.31;5081977;28;20179;-67
2022/01/20 06:29:08;;;;;;;11.53;4.50;;;;;;;3.79;57.48;101329.09;5099657;28;20206;-67
2022/01/20 06:31:34;;;;;;;22.67;5.07;;;;;;;3.58;56.55;101326.38;5099968;28;20715;-67
2022/01/20 06:33:59;;;;;;;16.30;4.90;;;;;;;3.40;57.18;101339.28;5106795;28;20169;-69
2022/01/20 06:36:24;;;;;;;18.13;5.07;;;;;;;3.40;56.99;101338.38;5109170;28;20176;-68
2022/01/20 06:38:50;;;;;;;12.07;4.97;;;;;;;3.45;57.10;101342.06;5108242;28;20200;-69
2022/01/20 06:41:15;;;;;;;15.10;5.00;;;;;;;3.63;57.09;101352.41;5102715;28;20180;-68
2022/01/20 06:43:40;;;;;;;8.90;4.17;;;;;;;3.42;58.65;101352.25;5099596;28;20587;-68
2022/01/20 06:46:06;;;;;;;10.90;4.20;;;;;;;3.81;57.34;101355.84;5100096;28;20165;-69
2022/01/20 06:48:31;;;;;;;18.13;5.90;;;;;;;3.53;57.53;101361.38;5099357;28;20266;-67
2022/01/20 06:50:56;;;;;;;16.47;5.03;;;;;;;3.64;56.54;101361.88;5099204;28;20196;-68
2022/01/20 06:53:22;;;;;;;14.47;5.07;;;;;;;3.81;57.31;101368.72;5098674;28;20509;-68
2022/01/20 06:55:47;;;;;;;11.67;4.57;;;;;;;3.81;57.23;101370.44;5098981;28;20164;-68
2022/01/20 06:58:12;;;;;;;15.10;5.30;;;;;;;3.75;56.98;101385.59;5099259;28;20557;-68
2022/01/20 07:00:37;;;;;;;12.83;5.77;;;;;;;3.62;57.21;101374.72;5099092;28;20168;-68
2022/01/20 07:03:03;;;;;;;8.80;4.43;;;;;;;3.62;57.58;101381.56;5098707;28;20172;-68
2022/01/20 07:05:28;;;;;;;9.97;4.50;;;;;;;3.78;56.61;101380.63;5099359;28;20183;-68
2022/01/20 07:07:53;;;;;;;12.63;4.50;;;;;;;3.76;56.92;101388.28;5098832;28;20187;-68
2022/01/20 07:10:20;;;;;;;14.70;4.50;;;;;;;3.76;57.74;101388.28;5098897;28;20177;-68
2022/01/20 07:12:47;;;;;;;7.80;5.90;;;;;;;3.61;57.26;101379.78;5099037;28;20172;-69
2022/01/20 07:15:14;;;;;;;15.33;4.00;;;;;;;3.64;57.44;101385.09;5098829;28;20438;-68
2022/01/20 07:17:40;;;;;;;19.87;5.27;;;;;;;3.94;56.54;101390.84;5098659;28;20449;-68
2022/01/20 07:20:06;;;;;;;16.23;4.90;;;;;;;3.25;57.74;101380.66;5099352;28;20403;-68
2022/01/20 07:22:32;;;;;;;12.97;4.80;;;;;;;3.99;58.23;101373.91;5098582;28;20467;-70
2022/01/20 07:24:57;;;;;;;15.00;4.70;;;;;;;3.65;56.67;101382.63;5098622;28;20728;-68
2022/01/20 07:27:22;;;;;;;16.10;5.10;;;;;;;3.77;58.37;101389.16;5098979;28;20164;-67
2022/01/20 07:29:48;;;;;;;13.20;5.20;;;;;;;3.68;56.86;101387.91;5098031;28;20499;-68
2022/01/20 07:32:13;;;;;;;20.03;4.63;;;;;;;3.59;56.98;101397.78;5098655;28;20426;-67
2022/01/20 07:34:38;;;;;;;16.43;5.00;;;;;;;3.62;56.63;101400.50;5098983;28;20478;-67
2022/01/20 07:37:05;;;;;;;13.97;6.00;;;;;;;3.82;58.01;101416.94;5098513;28;20447;-68
2022/01/20 07:39:30;;;;;;;12.80;4.97;;;;;;;4.11;58.65;101420.00;5098311;28;20214;-68
2022/01/20 07:41:55;;;;;;;14.67;5.00;;;;;;;3.96;55.66;101420.16;5098876;28;20743;-68
2022/01/20 07:44:21;;;;;;;12.47;4.50;;;;;;;3.67;55.71;101421.38;5098254;28;20174;-67
2022/01/20 07:46:47;;;;;;;11.00;4.73;;;;;;;3.98;55.08;101422.84;5098596;28;20259;-68
2022/01/20 07:49:13;;;;;;;12.70;4.60;;;;;;;4.05;55.71;101427.47;5081332;28;20168;-69
2022/01/20 07:51:38;;;;;;;8.43;4.00;;;;;;;4.11;57.12;101429.44;5097811;28;20429;-68
2022/01/20 07:54:04;;;;;;;15.10;4.60;;;;;;;4.20;54.28;101428.16;5098436;28;20456;-67
2022/01/20 07:56:29;;;;;;;9.10;4.80;;;;;;;4.67;54.02;101428.59;5098693;28;20179;-67
2022/01/20 07:58:55;;;;;;;16.80;5.40;;;;;;;4.11;54.75;101430.31;5080812;28;20283;-68
2022/01/20 08:01:22;;;;;;;18.40;4.63;;;;;;;4.82;54.24;101438.72;5098347;28;20168;-68
2022/01/20 08:03:47;;;;;;;13.00;4.10;;;;;;;4.27;55.40;101437.09;5098347;28;20174;-69
2022/01/20 08:06:12;;;;;;;9.87;4.73;;;;;;;4.60;55.46;101442.06;5098137;28;20684;-67
2022/01/20 08:08:38;;;;;;;12.00;4.57;;;;;;;4.73;53.88;101451.22;5098233;28;20172;-67
2022/01/20 08:11:03;;;;;;;9.90;4.40;;;;;;;4.41;54.64;101447.16;5098748;28;20460;-68
2022/01/20 08:13:29;;;;;;;9.33;3.50;;;;;;;4.69;52.66;101450.19;5097919;28;20225;-67
2022/01/20 08:15:54;;;;;;;5.97;3.40;;;;;;;5.20;50.57;101443.78;5098088;28;20168;-67
2022/01/20 08:18:19;;;;;;;6.40;3.33;;;;;;;6.08;48.17;101431.88;5097840;28;20188;-70
2022/01/20 08:20:45;;;;;;;11.13;3.43;;;;;;;5.73;48.38;101450.31;5108293;28;20421;-68
2022/01/20 08:23:10;;;;;;;9.33;3.57;;;;;;;5.45;49.23;101457.75;5100007;28;20406;-68
2022/01/20 08:25:36;;;;;;;7.67;4.07;;;;;;;5.03;51.42;101461.16;5118371;28;20160;-67
2022/01/20 08:28:01;;;;;;;7.60;3.70;;;;;;;4.68;53.18;101461.34;5110514;28;20440;-68
2022/01/20 08:30:26;;;;;;;10.43;3.83;;;;;;;4.80;52.78;101460.13;5097562;28;20491;-68
2022/01/20 08:32:52;;;;;;;7.70;3.63;;;;;;;5.28;52.37;101455.34;5097846;28;20165;-69
2022/01/20 08:35:19;;;;;;;9.93;3.93;;;;;;;6.72;48.75;101446.41;5063201;28;20441;-67
2022/01/20 08:37:45;;;;;;;9.23;4.20;;;;;;;6.72;50.59;101442.91;5096901;28;20199;-68
2022/01/20 08:40:13;;;;;;;9.77;3.67;;;;;;;7.77;48.43;101436.16;5118244;28;20397;-67
2022/01/20 08:42:43;;;;;;;7.03;3.90;;;;;;;7.68;46.86;101441.03;5119530;28;20506;-68
2022/01/20 08:45:10;;;;;;;9.27;5.00;;;;;;;7.41;47.40;101439.28;5121802;28;20387;-68
2022/01/20 08:47:36;;;;;;;9.63;4.50;;;;;;;7.61;47.60;101434.75;5121633;28;20703;-69
2022/01/20 08:50:03;;;;;;;11.40;4.03;;;;;;;7.68;46.92;101428.94;5123104;28;20409;-68
2022/01/20 08:52:29;;;;;;;9.70;4.80;;;;;;;7.74;46.67;101420.47;5113276;28;20284;-68
2022/01/20 08:54:56;;;;;;;9.50;4.27;;;;;;;8.28;46.02;101427.34;5083095;28;20882;-68
2022/01/20 08:57:22;;;;;;;12.97;4.70;;;;;;;8.55;44.41;101429.91;5081343;28;20421;-68
2022/01/20 08:59:47;;;;;;;6.73;4.23;;;;;;;8.91;43.35;101429.16;5081112;28;20688;-68
2022/01/20 09:02:13;;;;;;;7.53;4.00;;;;;;;8.73;44.62;101437.34;5081158;28;20176;-68
2022/01/20 09:04:38;;;;;;;9.70;4.20;;;;;;;8.22;44.36;101434.94;5081499;28;20187;-67
2022/01/20 09:07:04;;;;;;;12.63;4.77;;;;;;;7.39;46.56;101449.59;5081036;28;20542;-68
2022/01/20 09:09:29;;;;;;;14.20;4.50;;;;;;;8.01;46.19;101441.25;5063268;28;20161;-68
2022/01/20 09:12:17;;;;;;;10.20;4.20;;;;;;;8.84;44.47;101440.25;5081636;28;20586;-67
2022/01/20 09:17:30;;;;;;;12.47;5.20;;;;;;;9.02;42.56;101447.66;5080788;28;20643;-68
2022/01/20 09:19:56;;;;;;;9.93;4.30;;;;;;;8.55;44.45;101457.59;5080990;28;20407;-70
2022/01/20 09:22:22;;;;;;;6.07;3.73;;;;;;;8.05;49.35;101475.97;5080996;28;20393;-70
2022/01/20 09:24:47;;;;;;;7.73;3.87;;;;;;;6.56;53.35;101469.97;5081160;28;20374;-69
2022/01/20 09:27:13;;;;;;;6.97;3.43;;;;;;;6.11;55.49;101464.78;5066205;28;20832;-70
2022/01/20 09:29:40;;;;;;;7.90;3.40;;;;;;;5.49;55.19;101488.09;5101057;28;20168;-68
2022/01/20 09:32:08;;;;;;;7.70;3.10;;;;;;;5.49;54.67;101483.78;5101409;28;20427;-68
2022/01/20 09:34:33;;;;;;;6.27;3.37;;;;;;;5.29;54.71;101495.91;5100522;28;20489;-68
2022/01/20 09:36:59;;;;;;;10.77;3.37;;;;;;;5.33;54.36;101497.81;5067454;28;20498;-67
2022/01/20 09:39:24;;;;;;;4.87;3.20;;;;;;;5.37;54.82;101491.03;5091347;28;20574;-68
2022/01/20 09:41:50;;;;;;;5.40;2.97;;;;;;;5.53;54.50;101506.41;5109486;28;20172;-67
2022/01/20 09:44:15;;;;;;;11.63;4.20;;;;;;;5.73;57.27;101512.41;5094717;28;20195;-67
2022/01/20 09:46:41;;;;;;;12.23;3.47;;;;;;;5.45;55.14;101520.69;5087380;28;20468;-69
2022/01/20 09:49:09;;;;;;;12.67;4.40;;;;;;;4.59;58.62;101534.91;5064522;28;20161;-69
2022/01/20 09:51:34;;;;;;;5.10;3.50;;;;;;;4.69;61.71;101521.63;5081426;28;20185;-69
2022/01/20 09:53:59;;;;;;;12.80;4.40;;;;;;;4.76;61.77;101509.88;5120994;28;20452;-68
2022/01/20 09:56:25;;;;;;;8.77;4.10;;;;;;;5.00;61.75;101505.81;5120940;28;20176;-68
2022/01/20 09:58:50;;;;;;;10.50;4.00;;;;;;;4.82;60.19;101512.75;5120822;28;20240;-68
2022/01/20 10:01:35;;;;;;;6.17;4.07;;;;;;;4.66;60.19;101504.28;5121330;28;20160;-71
2022/01/20 10:04:01;;;;;;;10.80;3.50;;;;;;;5.33;58.98;101513.31;5120738;28;20213;-69
2022/01/20 10:06:26;;;;;;;8.03;3.87;;;;;;;6.11;55.49;101508.78;5120624;28;20441;-69
2022/01/20 10:08:59;;;;;;;8.77;3.77;;;;;;;7.71;50.67;101499.13;5118340;28;20191;-70
2022/01/20 10:11:25;;;;;;;10.53;3.93;;;;;;;8.06;49.29;101501.09;5082380;28;20164;-69
2022/01/20 10:13:50;;;;;;;8.50;3.90;;;;;;;8.62;47.80;101501.16;5100121;28;20774;-68
2022/01/20 10:16:17;;;;;;;9.07;4.47;;;;;;;9.10;46.15;101502.50;5099991;28;20204;-69
2022/01/20 10:18:46;;;;;;;11.70;4.10;;;;;;;9.08;46.23;101504.19;5099888;28;20196;-69
2022/01/20 10:21:11;;;;;;;7.80;3.90;;;;;;;8.88;45.89;101499.28;5100302;28;20828;-69
2022/01/20 10:23:38;;;;;;;9.20;4.07;;;;;;;7.73;48.14;101528.59;5099603;28;20457;-69
2022/01/20 10:26:05;;;;;;;8.87;4.00;;;;;;;7.32;49.51;101533.25;5099735;28;20168;-69
2022/01/20 10:28:30;;;;;;;10.23;4.67;;;;;;;5.53;55.12;101559.81;5113820;28;20450;-69
2022/01/20 10:30:56;;;;;;;12.00;4.60;;;;;;;3.88;63.33;101589.16;5120164;28;20421;-71
2022/01/20 10:33:22;;;;;;;4.97;2.97;;;;;;;3.89;63.78;101588.34;5120124;28;20168;-70
2022/01/20 10:35:47;;;;;;;5.33;2.60;;;;;;;3.43;65.38;101558.53;5120558;28;20410;-69
2022/01/20 10:38:14;;;;;;;5.97;2.60;;;;;;;3.29;67.52;101534.63;5102495;28;20283;-70
2022/01/20 10:40:59;;;;;;;4.43;2.40;;;;;;;3.49;67.67;101550.22;5120562;28;20163;-70
2022/01/20 10:43:28;;;;;;;5.20;3.90;;;;;;;3.46;67.79;101568.09;5114492;28;20831;-71
2022/01/20 10:46:11;;;;;;;6.67;2.70;;;;;;;3.17;70.14;101570.06;5099330;28;20422;-70
2022/01/20 10:48:37;;;;;;;6.40;2.83;;;;;;;3.74;67.72;101560.09;5082116;28;20430;-70
2022/01/20 10:51:23;;;;;;;4.97;2.67;;;;;;;5.47;62.92;101541.47;5099286;28;20483;-72
2022/01/20 10:54:03;;;;;;;4.23;2.73;;;;;;;6.55;57.64;101528.66;5079023;28;20463;-70
2022/01/20 10:56:28;;;;;;;5.00;2.83;;;;;;;7.05;56.18;101523.63;5061720;28;20417;-70
2022/01/20 10:58:54;;;;;;;8.77;4.00;;;;;;;7.72;54.72;101519.03;5078790;28;20458;-70
2022/01/20 11:01:20;;;;;;;7.73;3.63;;;;;;;7.62;52.88;101514.38;5078810;28;20419;-69
2022/01/20 11:03:46;;;;;;;5.87;3.50;;;;;;;7.93;51.94;101513.69;5078921;28;20205;-70
2022/01/20 11:06:11;;;;;;;5.50;3.37;;;;;;;8.06;51.88;101501.09;5060690;28;20396;-70
2022/01/20 11:08:39;;;;;;;10.53;3.60;;;;;;;8.80;50.20;101487.78;5078858;28;20177;-69
2022/01/20 11:11:05;;;;;;;6.50;3.43;;;;;;;7.79;50.65;101491.56;5078931;28;20477;-69
2022/01/20 11:13:30;;;;;;;10.10;4.10;;;;;;;9.16;48.06;101499.19;5044566;28;20434;-71
2022/01/20 11:15:56;;;;;;;9.93;4.27;;;;;;;8.41;47.23;101502.19;5078634;28;20176;-71
2022/01/20 11:18:27;;;;;;;9.57;3.80;;;;;;;8.98;46.47;101482.22;5079009;28;20211;-71
2022/01/20 11:20:53;;;;;;;10.20;4.20;;;;;;;8.70;46.52;101483.16;5061208;28;20169;-72
2022/01/20 11:23:19;;;;;;;7.50;3.40;;;;;;;9.32;44.61;101480.53;5078227;28;20473;-70
2022/01/20 11:25:45;;;;;;;11.20;4.53;;;;;;;8.28;47.25;101484.50;5061391;28;20443;-72
2022/01/20 11:28:16;;;;;;;8.97;3.60;;;;;;;8.86;43.61;101479.28;5089115;28;20517;-71
2022/01/20 11:30:54;;;;;;;6.97;4.27;;;;;;;8.43;43.81;101471.97;5098565;28;20425;-72
2022/01/20 11:33:20;;;;;;;11.53;5.27;;;;;;;8.16;44.41;101472.00;5098427;28;20410;-69
2022/01/20 11:35:49;;;;;;;7.30;4.03;;;;;;;8.57;44.45;101480.19;5098766;28;20765;-69
2022/01/20 11:38:19;;;;;;;7.87;4.50;;;;;;;9.14;43.11;101482.69;5081249;28;20457;-68
2022/01/20 11:41:05;;;;;;;7.47;4.00;;;;;;;9.04;43.24;101481.53;5080954;28;20422;-70
2022/01/20 11:43:38;;;;;;;7.70;4.90;;;;;;;7.69;45.26;101480.00;5092282;28;20874;-70
2022/01/20 11:46:15;;;;;;;5.80;4.07;;;;;;;7.93;44.85;101476.47;5060914;28;20374;-69
2022/01/20 11:49:00;;;;;;;7.90;4.10;;;;;;;7.59;46.27;101485.75;5078409;28;20386;-68
2022/01/20 11:51:41;;;;;;;8.03;4.33;;;;;;;7.68;46.24;101475.63;5078044;28;20521;-68
2022/01/20 11:54:06;;;;;;;9.30;4.53;;;;;;;6.97;49.97;101488.75;5076954;28;20434;-70
2022/01/20 11:56:36;;;;;;;14.10;4.57;;;;;;;6.53;48.86;101482.81;5077862;28;20420;-70
2022/01/20 11:59:02;;;;;;;10.63;4.40;;;;;;;6.86;47.98;101497.84;5078061;28;20200;-71
2022/01/20 12:01:30;;;;;;;10.57;4.37;;;;;;;7.51;47.39;101488.06;5077688;28;20448;-70
2022/01/20 12:03:56;;;;;;;12.93;4.60;;;;;;;7.97;47.35;101491.31;5077908;28;20390;-71
2022/01/20 12:06:25;;;;;;;8.00;4.40;;;;;;;7.73;47.36;101494.84;5078056;28;20411;-70
2022/01/20 12:09:00;;;;;;;8.30;4.47;;;;;;;7.91;45.90;101473.81;5077977;28;20843;-69
2022/01/20 12:11:39;;;;;;;10.43;3.77;;;;;;;8.06;46.67;101482.91;5078052;28;20745;-68
2022/01/20 12:14:06;;;;;;;14.13;3.83;;;;;;;6.94;48.02;101493.84;5078187;28;20421;-70
2022/01/20 12:16:38;;;;;;;8.00;4.63;;;;;;;6.95;46.62;101476.56;5080092;28;20658;-71
2022/01/20 12:19:09;;;;;;;11.43;4.17;;;;;;;6.77;46.56;101474.19;5082423;28;20469;-70
2022/01/20 12:21:35;;;;;;;7.13;3.90;;;;;;;5.79;48.71;101479.84;5082683;28;20426;-69
2022/01/20 12:24:00;;;;;;;11.60;4.00;;;;;;;6.42;48.03;101476.34;5081910;28;20692;-69
2022/01/20 12:26:26;;;;;;;8.83;3.60;;;;;;;7.01;47.43;101480.28;5083476;28;20426;-71